createdAt,value
2022-08-05T00:01:49.010Z,99161.30
2022-08-05T00:06:53.327Z,99157.98
2022-08-05T00:11:59.874Z,99158.04
2022-08-05T00:17:04.299Z,99156.83
2022-08-05T00:22:23.184Z,99156.55
2022-08-05T00:27:35.624Z,99155.23
2022-08-05T00:32:40.491Z,99150.88
2022-08-05T00:37:52.645Z,99148.95
2022-08-05T00:42:58.960Z,99139.95
2022-08-05T00:48:05.623Z,99144.44
2022-08-05T00:53:44.893Z,99138.85
2022-08-05T00:58:33.726Z,99137.70
2022-08-05T01:03:37.755Z,99133.08
2022-08-05T01:08:44.613Z,99129.52
2022-08-05T01:14:03.112Z,99124.77
2022-08-05T01:20:00.770Z,99125.22
2022-08-05T01:25:14.010Z,99123.77
2022-08-05T01:30:19.296Z,99123.80
2022-08-05T01:35:51.240Z,99119.38
2022-08-05T01:40:59.367Z,99113.91
2022-08-05T01:46:07.290Z,99110.98
2022-08-05T01:51:23.799Z,99105.91
2022-08-05T01:58:10.132Z,99101.10
2022-08-05T02:02:00.571Z,99097.59
2022-08-05T02:07:04.583Z,99097.16
2022-08-05T02:12:12.589Z,99094.40
2022-08-05T02:18:28.245Z,99092.25
2022-08-05T02:22:51.760Z,99084.86
2022-08-05T02:27:59.724Z,99080.55
2022-08-05T02:33:05.148Z,99078.89
2022-08-05T02:38:10.782Z,99080.09
2022-08-05T02:43:24.548Z,99078.36
2022-08-05T02:48:29.983Z,99082.44
2022-08-05T02:53:39.512Z,99085.64
2022-08-05T02:58:45.180Z,99082.53
2022-08-05T03:04:02.143Z,99080.30
2022-08-05T03:09:11.478Z,99080.66
2022-08-05T03:14:19.784Z,99077.80
2022-08-05T03:19:34.121Z,99083.27
2022-08-05T03:24:38.903Z,99078.00
2022-08-05T03:30:07.770Z,99078.73
2022-08-05T03:35:13.878Z,99078.14
2022-08-05T03:40:24.050Z,99071.83
2022-08-05T03:45:58.137Z,99072.84
2022-08-05T03:52:38.943Z,99073.78
2022-08-05T03:56:35.141Z,99073.08
2022-08-05T04:01:46.224Z,99073.21
2022-08-05T04:06:53.396Z,99072.54
2022-08-05T04:11:57.978Z,99071.65
2022-08-05T04:17:03.138Z,99069.27
2022-08-05T04:22:11.831Z,99073.11
2022-08-05T04:27:33.221Z,99073.45
2022-08-05T04:32:43.845Z,99074.46
2022-08-05T04:38:02.540Z,99073.36
2022-08-05T04:43:11.154Z,99071.31
2022-08-05T04:48:27.364Z,99071.90
2022-08-05T04:53:33.627Z,99071.95
2022-08-05T04:58:39.215Z,99069.48
2022-08-05T05:03:43.283Z,99071.04
2022-08-05T05:08:50.132Z,99066.80
2022-08-05T05:13:55.240Z,99064.53
2022-08-05T05:19:19.042Z,99061.32
2022-08-05T05:24:23.117Z,99061.99
2022-08-05T05:30:04.869Z,99068.39
2022-08-05T05:35:10.166Z,99072.87
2022-08-05T05:40:26.105Z,99073.17
2022-08-05T05:45:31.646Z,99072.61
2022-08-05T05:50:43.986Z,99074.09
2022-08-05T05:55:51.727Z,99077.19
2022-08-05T06:01:15.241Z,99078.05
2022-08-05T06:06:19.202Z,99079.48
2022-08-05T06:11:26.649Z,99075.04
2022-08-05T06:16:32.862Z,99074.51
2022-08-05T06:21:42.246Z,99070.42
2022-08-05T06:26:53.272Z,99076.40
2022-08-05T06:31:56.917Z,99076.71
2022-08-05T06:37:03.802Z,99075.00
2022-08-05T06:42:08.232Z,99068.08
2022-08-05T06:48:11.819Z,99068.96
2022-08-05T06:52:36.599Z,99064.72
2022-08-05T06:58:03.982Z,99063.88
2022-08-05T07:03:07.542Z,99058.82
2022-08-05T07:08:14.525Z,99055.77
2022-08-05T07:13:57.196Z,99057.13
2022-08-05T07:19:01.329Z,99052.95
2022-08-05T07:24:11.203Z,99057.93
2022-08-05T07:29:17.138Z,99055.21
2022-08-05T07:34:21.489Z,99058.59
2022-08-05T07:40:04.112Z,99058.95
2022-08-05T07:44:56.103Z,99060.14
2022-08-05T07:50:00.142Z,99064.45
2022-08-05T07:55:44.619Z,99059.15
2022-08-05T08:00:34.840Z,99058.27
2022-08-05T08:05:39.488Z,99057.81
2022-08-05T08:10:43.024Z,99054.69
2022-08-05T08:16:34.309Z,99058.67
2022-08-05T08:21:17.677Z,99054.86
2022-08-05T08:26:29.530Z,99053.69
2022-08-05T08:31:33.804Z,99053.96
2022-08-05T08:36:47.349Z,99053.23
2022-08-05T08:41:59.459Z,99058.66
2022-08-05T08:47:22.295Z,99058.20
2022-08-05T08:52:31.949Z,99060.20
2022-08-05T08:57:48.162Z,99058.96
2022-08-05T09:03:02.094Z,99053.71
2022-08-05T09:08:07.947Z,99053.09
2022-08-05T09:13:16.680Z,99054.40
2022-08-05T09:18:21.562Z,99054.77
2022-08-05T09:23:27.263Z,99053.46
2022-08-05T09:28:42.183Z,99043.95
2022-08-05T09:33:50.871Z,99042.34
2022-08-05T09:38:59.881Z,99036.67
2022-08-05T09:44:04.214Z,99035.19
2022-08-05T09:49:24.193Z,99028.35
2022-08-05T09:54:56.228Z,99021.86
2022-08-05T10:00:05.980Z,99014.98
2022-08-05T10:05:14.226Z,99014.42
2022-08-05T10:10:19.892Z,99010.66
2022-08-05T10:15:39.358Z,99010.21
2022-08-05T10:20:48.573Z,98998.52
2022-08-05T10:25:54.051Z,99000.96
2022-08-05T10:32:48.584Z,99002.95
2022-08-05T10:36:26.254Z,98997.17
2022-08-05T10:41:45.185Z,98995.25
2022-08-05T10:46:54.341Z,98987.88
2022-08-05T10:52:00.446Z,98985.10
2022-08-05T10:57:05.201Z,98978.55
2022-08-05T11:02:14.776Z,98972.31
2022-08-05T11:08:02.669Z,98972.41
2022-08-05T11:13:30.997Z,98965.73
2022-08-05T11:18:46.950Z,98964.22
2022-08-05T11:24:05.536Z,98959.91
2022-08-05T11:29:39.766Z,98961.55
2022-08-05T11:34:51.502Z,98964.87
2022-08-05T11:40:02.650Z,98956.71
2022-08-05T11:45:23.374Z,98956.66
2022-08-05T11:50:39.238Z,98959.30
2022-08-05T11:55:55.206Z,98953.80
2022-08-05T12:01:10.397Z,98952.09
2022-08-05T12:06:16.505Z,98944.08
2022-08-05T12:11:28.453Z,98941.48
2022-08-05T12:16:46.789Z,98937.91
2022-08-05T12:21:51.833Z,98934.77
2022-08-05T12:27:09.728Z,98931.99
2022-08-05T12:32:25.236Z,98930.50
2022-08-05T12:37:30.347Z,98923.66
2022-08-05T12:42:37.022Z,98918.80
2022-08-05T12:47:43.572Z,98917.61
2022-08-05T12:53:06.027Z,98915.12
2022-08-05T12:58:50.395Z,98914.11
2022-08-05T13:03:48.965Z,98910.49
2022-08-05T13:08:55.655Z,98910.19
2022-08-05T13:14:07.524Z,98913.42
2022-08-05T13:19:14.036Z,98904.84
2022-08-05T13:24:27.665Z,98901.69
2022-08-05T13:30:31.497Z,98896.00
2022-08-05T13:35:10.590Z,98890.98
2022-08-05T13:40:35.685Z,98889.11
2022-08-05T13:45:43.031Z,98890.02
2022-08-05T13:50:47.347Z,98881.98
2022-08-05T13:56:00.236Z,98883.83
2022-08-05T14:01:06.574Z,98878.35
2022-08-05T14:06:26.112Z,98870.06
2022-08-05T14:11:31.266Z,98868.73
2022-08-05T14:16:35.216Z,98865.13
2022-08-05T14:22:09.021Z,98856.79
2022-08-05T14:27:18.594Z,98853.98
2022-08-05T14:32:27.100Z,98853.75
2022-08-05T14:37:45.425Z,98853.40
2022-08-05T14:42:52.350Z,98849.11
2022-08-05T14:48:03.044Z,98848.36
2022-08-05T14:53:12.260Z,98846.66
2022-08-05T14:58:22.925Z,98846.92
2022-08-05T15:03:33.728Z,98849.44
2022-08-05T15:08:59.886Z,98846.30
2022-08-05T15:14:07.359Z,98840.11
2022-08-05T15:19:14.464Z,98834.55
2022-08-05T15:24:27.534Z,98832.48
2022-08-05T15:29:31.233Z,98830.98
2022-08-05T15:34:47.031Z,98824.48
2022-08-05T15:41:01.804Z,98811.92
2022-08-05T15:45:23.176Z,98813.94
2022-08-05T15:50:43.663Z,98810.60
2022-08-05T15:56:04.021Z,98815.04
2022-08-05T16:01:17.449Z,98810.36
2022-08-05T16:06:23.143Z,98812.98
2022-08-05T16:11:39.946Z,98809.31
2022-08-05T16:16:45.147Z,98801.25
2022-08-05T16:21:58.675Z,98803.53
2022-08-05T16:27:05.221Z,98804.37
2022-08-05T16:32:11.260Z,98806.53
2022-08-05T16:38:15.362Z,98812.88
2022-08-05T16:42:38.905Z,98804.25
2022-08-05T16:47:53.288Z,98801.13
2022-08-05T16:53:00.193Z,98802.44
2022-08-05T16:58:19.913Z,98802.06
2022-08-05T17:03:23.760Z,98804.98
2022-08-05T17:08:35.957Z,98811.85
2022-08-05T17:13:51.579Z,98813.75
2022-08-05T17:19:07.382Z,98810.81
2022-08-05T17:24:19.368Z,98814.27
2022-08-05T17:29:41.181Z,98818.63
2022-08-05T17:34:48.106Z,98819.19
2022-08-05T17:39:55.178Z,98823.70
2022-08-05T17:45:00.377Z,98823.23
2022-08-05T17:50:14.454Z,98822.14
2022-08-05T17:55:37.569Z,98823.10
2022-08-05T18:00:47.043Z,98822.38
2022-08-05T18:05:53.654Z,98816.94
2022-08-05T18:10:58.906Z,98823.23
2022-08-05T18:16:03.596Z,98825.96
2022-08-05T18:21:13.220Z,98828.99
2022-08-05T18:26:29.162Z,98829.48
2022-08-05T18:31:35.463Z,98830.93
2022-08-05T18:36:39.967Z,98830.71
2022-08-05T18:41:55.477Z,98840.45
2022-08-05T18:47:05.034Z,98835.59
2022-08-05T18:52:33.102Z,98837.77
2022-08-05T18:57:49.881Z,98839.65
2022-08-05T19:03:03.634Z,98845.39
2022-08-05T19:08:12.231Z,98850.76
2022-08-05T19:13:17.943Z,98853.21
2022-08-05T19:18:23.361Z,98850.25
2022-08-05T19:24:05.773Z,98860.98
2022-08-05T19:28:55.939Z,98860.39
2022-08-05T19:34:00.757Z,98856.90
2022-08-05T19:39:05.798Z,98857.29
2022-08-05T19:44:13.769Z,98861.71
2022-08-05T19:49:18.048Z,98871.02
2022-08-05T19:54:31.153Z,98871.86
2022-08-05T19:59:56.583Z,98864.98
2022-08-05T20:05:00.469Z,98863.07
2022-08-05T20:10:11.698Z,98863.85
2022-08-05T20:15:48.516Z,98867.73
2022-08-05T20:20:47.626Z,98860.45
2022-08-05T20:25:52.244Z,98866.14
2022-08-05T20:30:56.349Z,98870.20
2022-08-05T20:36:01.570Z,98865.73
2022-08-05T20:41:08.123Z,98866.80
2022-08-05T20:46:18.612Z,98866.69
2022-08-05T20:51:30.797Z,98864.33
2022-08-05T20:56:41.879Z,98866.43
2022-08-05T21:01:47.211Z,98868.06
2022-08-05T21:06:53.502Z,98862.68
2022-08-05T21:12:10.624Z,98863.52
2022-08-05T21:17:15.681Z,98861.14
2022-08-05T21:22:21.980Z,98867.29
2022-08-05T21:27:28.156Z,98872.59
2022-08-05T21:32:42.530Z,98877.03
2022-08-05T21:37:53.425Z,98878.52
2022-08-05T21:42:59.056Z,98876.20
2022-08-05T21:48:06.454Z,98873.04
2022-08-05T21:53:17.567Z,98880.15
2022-08-05T21:58:30.718Z,98884.71
2022-08-05T22:03:52.660Z,98881.76
2022-08-05T22:08:57.203Z,98887.55
2022-08-05T22:14:06.283Z,98886.17
2022-08-05T22:20:00.767Z,98886.46
2022-08-05T22:25:08.791Z,98882.02
2022-08-05T22:30:32.463Z,98884.49
2022-08-05T22:35:49.150Z,98886.47
2022-08-05T22:40:54.849Z,98886.20
2022-08-05T22:45:58.968Z,98883.90
2022-08-05T22:51:06.773Z,98888.08
2022-08-05T22:56:11.479Z,98886.38
2022-08-05T23:01:16.284Z,98882.49
2022-08-05T23:06:19.919Z,98883.21
2022-08-05T23:11:29.972Z,98888.70
2022-08-05T23:16:52.738Z,98880.09
2022-08-05T23:21:56.295Z,98875.73
2022-08-05T23:26:59.882Z,98876.23
2022-08-05T23:32:05.691Z,98872.04
2022-08-05T23:37:09.646Z,98868.58
2022-08-05T23:42:15.661Z,98864.96
2022-08-05T23:47:27.273Z,98866.77
2022-08-05T23:52:32.276Z,98863.82
2022-08-05T23:57:39.813Z,98862.86
